sensor_id;sensor_type;location;lat;lon;timestamp;pressure;altitude;pressure_sealevel;temperature;humidity
10008;BME280;5043;41.766;26.204;2024-02-23T00:02:17;101053.81;;;8.71;100.00
10008;BME280;5043;41.766;26.204;2024-02-23T00:04:42;101016.53;;;8.49;100.00
10008;BME280;5043;41.766;26.204;2024-02-23T00:07:07;101061.53;;;8.74;100.00
10008;BME280;5043;41.766;26.204;2024-02-23T00:09:33;101050.22;;;8.72;100.00
10008;BME280;5043;41.766;26.204;2024-02-23T00:11:59;101048.38;;;8.74;100.00
10008;BME280;5043;41.766;26.204;2024-02-23T00:14:24;101051.34;;;8.68;100.00
10008;BME280;5043;41.766;26.204;2024-02-23T00:16:50;101054.47;;;8.75;100.00
10008;BME280;5043;41.766;26.204;2024-02-23T00:19:15;101053.63;;;8.74;100.00
10008;BME280;5043;41.766;26.204;2024-02-23T00:21:43;101061.31;;;8.77;100.00
10008;BME280;5043;41.766;26.204;2024-02-23T00:24:12;101049.78;;;8.80;100.00
10008;BME280;5043;41.766;26.204;2024-02-23T00:26:38;101042.63;;;8.82;100.00
10008;BME280;5043;41.766;26.204;2024-02-23T00:29:04;101040.97;;;8.81;100.00
10008;BME280;5043;41.766;26.204;2024-02-23T00:31:29;101036.34;;;8.84;100.00
10008;BME280;5043;41.766;26.204;2024-02-23T00:33:55;101020.19;;;8.76;100.00
10008;BME280;5043;41.766;26.204;2024-02-23T00:36:20;101003.44;;;8.77;100.00
10008;BME280;5043;41.766;26.204;2024-02-23T00:38:45;101030.16;;;8.85;100.00
10008;BME280;5043;41.766;26.204;2024-02-23T00:41:11;101024.72;;;8.88;100.00
10008;BME280;5043;41.766;26.204;2024-02-23T00:43:38;101026.97;;;8.94;100.00
10008;BME280;5043;41.766;26.204;2024-02-23T00:46:03;101027.91;;;8.93;100.00
10008;BME280;5043;41.766;26.204;2024-02-23T00:48:29;101023.22;;;8.98;100.00
10008;BME280;5043;41.766;26.204;2024-02-23T00:50:55;101025.66;;;9.02;100.00
10008;BME280;5043;41.766;26.204;2024-02-23T00:53:20;101021.53;;;8.97;100.00
10008;BME280;5043;41.766;26.204;2024-02-23T00:55:47;101032.06;;;8.97;100.00
10008;BME280;5043;41.766;26.204;2024-02-23T00:58:12;100939.16;;;8.39;100.00
10008;BME280;5043;41.766;26.204;2024-02-23T01:00:38;101000.75;;;8.79;100.00
10008;BME280;5043;41.766;26.204;2024-02-23T01:03:03;101030.22;;;8.84;100.00
10008;BME280;5043;41.766;26.204;2024-02-23T01:05:29;101029.22;;;8.86;100.00
10008;BME280;5043;41.766;26.204;2024-02-23T01:07:55;101014.19;;;8.74;100.00
10008;BME280;5043;41.766;26.204;2024-02-23T01:10:20;101037.19;;;8.85;100.00
10008;BME280;5043;41.766;26.204;2024-02-23T01:12:45;101031.75;;;8.88;100.00
10008;BME280;5043;41.766;26.204;2024-02-23T01:15:11;101028.09;;;8.90;100.00
10008;BME280;5043;41.766;26.204;2024-02-23T01:17:37;101020.00;;;8.93;100.00
10008;BME280;5043;41.766;26.204;2024-02-23T01:20:03;101007.84;;;8.77;100.00
10008;BME280;5043;41.766;26.204;2024-02-23T01:22:29;101005.34;;;8.89;100.00
10008;BME280;5043;41.766;26.204;2024-02-23T01:24:54;101009.88;;;8.87;100.00
10008;BME280;5043;41.766;26.204;2024-02-23T01:27:20;101029.88;;;8.90;100.00
10008;BME280;5043;41.766;26.204;2024-02-23T01:29:45;100982.41;;;8.77;100.00
10008;BME280;5043;41.766;26.204;2024-02-23T01:32:11;101000.38;;;8.85;100.00
10008;BME280;5043;41.766;26.204;2024-02-23T01:34:36;100969.50;;;8.59;100.00
10008;BME280;5043;41.766;26.204;2024-02-23T01:37:02;101001.56;;;8.79;100.00
10008;BME280;5043;41.766;26.204;2024-02-23T01:39:28;100987.78;;;8.76;100.00
10008;BME280;5043;41.766;26.204;2024-02-23T01:41:53;100961.25;;;8.51;100.00
10008;BME280;5043;41.766;26.204;2024-02-23T01:44:20;100992.88;;;8.79;100.00
10008;BME280;5043;41.766;26.204;2024-02-23T01:46:46;100993.13;;;8.74;100.00
10008;BME280;5043;41.766;26.204;2024-02-23T01:49:13;100989.19;;;8.67;100.00
10008;BME280;5043;41.766;26.204;2024-02-23T01:51:39;100995.38;;;8.66;100.00
10008;BME280;5043;41.766;26.204;2024-02-23T01:54:05;100992.84;;;8.65;100.00
10008;BME280;5043;41.766;26.204;2024-02-23T01:56:32;100995.09;;;8.71;100.00
10008;BME280;5043;41.766;26.204;2024-02-23T01:58:59;100946.41;;;8.50;100.00
10008;BME280;5043;41.766;26.204;2024-02-23T02:01:25;100974.22;;;8.68;100.00
10008;BME280;5043;41.766;26.204;2024-02-23T02:03:51;100988.53;;;8.78;100.00
10008;BME280;5043;41.766;26.204;2024-02-23T02:06:17;100980.63;;;8.78;100.00
10008;BME280;5043;41.766;26.204;2024-02-23T02:08:42;100972.09;;;8.74;100.00
10008;BME280;5043;41.766;26.204;2024-02-23T02:11:08;100962.31;;;8.62;100.00
10008;BME280;5043;41.766;26.204;2024-02-23T02:13:33;100981.38;;;8.80;100.00
10008;BME280;5043;41.766;26.204;2024-02-23T02:16:00;100971.59;;;8.82;100.00
10008;BME280;5043;41.766;26.204;2024-02-23T02:18:27;100967.19;;;8.82;100.00
10008;BME280;5043;41.766;26.204;2024-02-23T02:20:55;100950.38;;;8.71;100.00
10008;BME280;5043;41.766;26.204;2024-02-23T02:23:22;100980.75;;;8.90;100.00
10008;BME280;5043;41.766;26.204;2024-02-23T02:25:54;100966.19;;;8.85;100.00
10008;BME280;5043;41.766;26.204;2024-02-23T02:28:20;100945.22;;;8.83;100.00
10008;BME280;5043;41.766;26.204;2024-02-23T02:30:45;100977.44;;;8.87;100.00
10008;BME280;5043;41.766;26.204;2024-02-23T02:33:11;100944.25;;;8.70;100.00
10008;BME280;5043;41.766;26.204;2024-02-23T02:35:37;100956.69;;;8.82;100.00
10008;BME280;5043;41.766;26.204;2024-02-23T02:38:02;100966.06;;;8.86;100.00
10008;BME280;5043;41.766;26.204;2024-02-23T02:40:28;100966.06;;;8.86;100.00
10008;BME280;5043;41.766;26.204;2024-02-23T02:42:53;100968.91;;;8.83;100.00
10008;BME280;5043;41.766;26.204;2024-02-23T02:45:18;100966.28;;;8.83;100.00
10008;BME280;5043;41.766;26.204;2024-02-23T02:47:44;100970.69;;;8.83;100.00
10008;BME280;5043;41.766;26.204;2024-02-23T02:50:09;100967.88;;;8.86;100.00
10008;BME280;5043;41.766;26.204;2024-02-23T02:52:35;100939.09;;;8.69;100.00
10008;BME280;5043;41.766;26.204;2024-02-23T02:55:00;100834.47;;;8.02;100.00
10008;BME280;5043;41.766;26.204;2024-02-23T02:57:26;100925.09;;;8.54;100.00
10008;BME280;5043;41.766;26.204;2024-02-23T02:59:51;100978.94;;;8.77;100.00
10008;BME280;5043;41.766;26.204;2024-02-23T03:02:17;100972.09;;;8.74;100.00
10008;BME280;5043;41.766;26.204;2024-02-23T03:04:49;100942.09;;;8.63;100.00
10008;BME280;5043;41.766;26.204;2024-02-23T03:07:15;100954.72;;;8.72;100.00
10008;BME280;5043;41.766;26.204;2024-02-23T03:09:41;100937.31;;;8.55;100.00
10008;BME280;5043;41.766;26.204;2024-02-23T03:12:06;100939.63;;;8.46;100.00
10008;BME280;5043;41.766;26.204;2024-02-23T03:14:32;100960.97;;;8.55;100.00
10008;BME280;5043;41.766;26.204;2024-02-23T03:16:59;100955.88;;;8.52;100.00
10008;BME280;5043;41.766;26.204;2024-02-23T03:19:25;100968.00;;;8.55;100.00
10008;BME280;5043;41.766;26.204;2024-02-23T03:21:51;100964.81;;;8.50;100.00
10008;BME280;5043;41.766;26.204;2024-02-23T03:24:17;100960.00;;;8.42;100.00
10008;BME280;5043;41.766;26.204;2024-02-23T03:26:42;100955.09;;;8.36;100.00
10008;BME280;5043;41.766;26.204;2024-02-23T03:29:09;100933.91;;;8.23;100.00
10008;BME280;5043;41.766;26.204;2024-02-23T03:31:34;100966.47;;;8.37;100.00
10008;BME280;5043;41.766;26.204;2024-02-23T03:34:00;100933.16;;;8.21;100.00
10008;BME280;5043;41.766;26.204;2024-02-23T03:36:25;100957.84;;;8.35;100.00
10008;BME280;5043;41.766;26.204;2024-02-23T03:38:51;100963.91;;;8.35;100.00
10008;BME280;5043;41.766;26.204;2024-02-23T03:41:17;100927.69;;;8.10;100.00
10008;BME280;5043;41.766;26.204;2024-02-23T03:43:43;100935.41;;;8.13;100.00
10008;BME280;5043;41.766;26.204;2024-02-23T03:46:08;100957.41;;;8.26;100.00
10008;BME280;5043;41.766;26.204;2024-02-23T03:48:33;100960.13;;;8.25;100.00
10008;BME280;5043;41.766;26.204;2024-02-23T03:50:59;100965.53;;;8.22;100.00
10008;BME280;5043;41.766;26.204;2024-02-23T03:53:25;100955.13;;;8.20;100.00
10008;BME280;5043;41.766;26.204;2024-02-23T03:55:50;100963.34;;;8.30;100.00
10008;BME280;5043;41.766;26.204;2024-02-23T03:58:16;100947.47;;;8.16;100.00
10008;BME280;5043;41.766;26.204;2024-02-23T04:00:43;100961.91;;;8.24;100.00
10008;BME280;5043;41.766;26.204;2024-02-23T04:03:08;100975.97;;;8.23;100.00
10008;BME280;5043;41.766;26.204;2024-02-23T04:05:34;100959.13;;;8.12;100.00
10008;BME280;5043;41.766;26.204;2024-02-23T04:07:59;100947.69;;;8.13;100.00
10008;BME280;5043;41.766;26.204;2024-02-23T04:10:25;100944.47;;;8.08;100.00
10008;BME280;5043;41.766;26.204;2024-02-23T04:12:50;100947.94;;;8.08;100.00
10008;BME280;5043;41.766;26.204;2024-02-23T04:15:16;100950.31;;;7.97;100.00
10008;BME280;5043;41.766;26.204;2024-02-23T04:17:41;100952.53;;;8.05;100.00
10008;BME280;5043;41.766;26.204;2024-02-23T04:20:08;100960.34;;;8.06;100.00
10008;BME280;5043;41.766;26.204;2024-02-23T04:22:35;100960.56;;;8.02;100.00
10008;BME280;5043;41.766;26.204;2024-02-23T04:25:01;100949.03;;;8.04;100.00
10008;BME280;5043;41.766;26.204;2024-02-23T04:27:26;100908.25;;;7.83;100.00
10008;BME280;5043;41.766;26.204;2024-02-23T04:29:51;100946.41;;;8.04;100.00
10008;BME280;5043;41.766;26.204;2024-02-23T04:32:17;100924.53;;;7.90;100.00
10008;BME280;5043;41.766;26.204;2024-02-23T04:34:42;100929.78;;;7.90;100.00
10008;BME280;5043;41.766;26.204;2024-02-23T04:37:08;100944.81;;;8.02;100.00
10008;BME280;5043;41.766;26.204;2024-02-23T04:39:34;100946.88;;;7.97;100.00
10008;BME280;5043;41.766;26.204;2024-02-23T04:41:59;100956.84;;;8.06;100.00
10008;BME280;5043;41.766;26.204;2024-02-23T04:44:25;100959.38;;;8.07;100.00
10008;BME280;5043;41.766;26.204;2024-02-23T04:46:50;100962.88;;;8.08;100.00
10008;BME280;5043;41.766;26.204;2024-02-23T04:49:16;100916.38;;;7.79;100.00
10008;BME280;5043;41.766;26.204;2024-02-23T04:51:41;100964.81;;;8.04;100.00
10008;BME280;5043;41.766;26.204;2024-02-23T04:54:07;100959.22;;;8.10;100.00
10008;BME280;5043;41.766;26.204;2024-02-23T04:56:32;100929.56;;;7.93;100.00
10008;BME280;5043;41.766;26.204;2024-02-23T04:58:59;100958.38;;;8.10;100.00
10008;BME280;5043;41.766;26.204;2024-02-23T05:01:24;100945.84;;;7.99;100.00
10008;BME280;5043;41.766;26.204;2024-02-23T05:03:50;100919.44;;;7.87;100.00
10008;BME280;5043;41.766;26.204;2024-02-23T05:06:15;100961.56;;;8.15;100.00
10008;BME280;5043;41.766;26.204;2024-02-23T05:08:40;100961.91;;;8.09;100.00
10008;BME280;5043;41.766;26.204;2024-02-23T05:11:06;100962.88;;;8.08;100.00
10008;BME280;5043;41.766;26.204;2024-02-23T05:13:31;100937.47;;;7.93;100.00
10008;BME280;5043;41.766;26.204;2024-02-23T05:15:57;100960.25;;;8.08;100.00
10008;BME280;5043;41.766;26.204;2024-02-23T05:18:22;100930.59;;;7.90;100.00
10008;BME280;5043;41.766;26.204;2024-02-23T05:20:48;100970.59;;;8.11;100.00
10008;BME280;5043;41.766;26.204;2024-02-23T05:23:14;100976.00;;;8.08;100.00
10008;BME280;5043;41.766;26.204;2024-02-23T05:25:41;100933.50;;;7.86;100.00
10008;BME280;5043;41.766;26.204;2024-02-23T05:28:07;100916.72;;;7.88;100.00
10008;BME280;5043;41.766;26.204;2024-02-23T05:30:32;100924.91;;;7.98;100.00
10008;BME280;5043;41.766;26.204;2024-02-23T05:32:58;100865.94;;;7.58;100.00
10008;BME280;5043;41.766;26.204;2024-02-23T05:35:26;100911.94;;;7.95;100.00
10008;BME280;5043;41.766;26.204;2024-02-23T05:37:52;100963.09;;;8.35;100.00
10008;BME280;5043;41.766;26.204;2024-02-23T05:40:18;100976.72;;;8.41;100.00
10008;BME280;5043;41.766;26.204;2024-02-23T05:42:43;100955.84;;;8.38;100.00
10008;BME280;5043;41.766;26.204;2024-02-23T05:45:09;100977.03;;;8.51;100.00
10008;BME280;5043;41.766;26.204;2024-02-23T05:47:36;100948.91;;;8.37;100.00
10008;BME280;5043;41.766;26.204;2024-02-23T05:50:03;100999.41;;;8.58;100.00
10008;BME280;5043;41.766;26.204;2024-02-23T05:52:31;100988.19;;;8.54;100.00
10008;BME280;5043;41.766;26.204;2024-02-23T05:54:57;100996.19;;;8.53;100.00
10008;BME280;5043;41.766;26.204;2024-02-23T05:57:25;100990.19;;;8.51;100.00
10008;BME280;5043;41.766;26.204;2024-02-23T05:59:51;100937.03;;;8.00;100.00
10008;BME280;5043;41.766;26.204;2024-02-23T06:02:16;100986.47;;;8.23;100.00
10008;BME280;5043;41.766;26.204;2024-02-23T06:04:42;100994.28;;;8.25;100.00
10008;BME280;5043;41.766;26.204;2024-02-23T06:07:08;100996.13;;;8.23;100.00
10008;BME280;5043;41.766;26.204;2024-02-23T06:09:33;101002.09;;;8.26;100.00
10008;BME280;5043;41.766;26.204;2024-02-23T06:11:59;100999.88;;;8.19;100.00
10008;BME280;5043;41.766;26.204;2024-02-23T06:14:25;100994.56;;;8.20;100.00
10008;BME280;5043;41.766;26.204;2024-02-23T06:16:50;101000.81;;;8.18;100.00
10008;BME280;5043;41.766;26.204;2024-02-23T06:19:16;101000.41;;;8.10;100.00
10008;BME280;5043;41.766;26.204;2024-02-23T06:21:41;100953.09;;;7.80;100.00
10008;BME280;5043;41.766;26.204;2024-02-23T06:24:07;101008.91;;;7.99;100.00
10008;BME280;5043;41.766;26.204;2024-02-23T06:26:36;100982.81;;;7.96;100.00
10008;BME280;5043;41.766;26.204;2024-02-23T06:29:02;100989.22;;;8.06;100.00
10008;BME280;5043;41.766;26.204;2024-02-23T06:31:28;100984.78;;;8.22;100.00
10008;BME280;5043;41.766;26.204;2024-02-23T06:33:54;100989.00;;;8.41;100.00
10008;BME280;5043;41.766;26.204;2024-02-23T06:36:20;100948.69;;;8.26;100.00
10008;BME280;5043;41.766;26.204;2024-02-23T06:38:45;101005.88;;;8.66;100.00
10008;BME280;5043;41.766;26.204;2024-02-23T06:41:11;100980.75;;;8.76;100.00
10008;BME280;5043;41.766;26.204;2024-02-23T06:43:37;101020.88;;;8.94;100.00
10008;BME280;5043;41.766;26.204;2024-02-23T06:46:09;101000.56;;;8.96;100.00
10008;BME280;5043;41.766;26.204;2024-02-23T06:48:35;100999.81;;;9.22;100.00
10008;BME280;5043;41.766;26.204;2024-02-23T06:51:05;101002.44;;;9.36;100.00
10008;BME280;5043;41.766;26.204;2024-02-23T06:53:34;101008.16;;;9.57;100.00
10008;BME280;5043;41.766;26.204;2024-02-23T06:56:00;100977.31;;;9.59;100.00
10008;BME280;5043;41.766;26.204;2024-02-23T06:58:26;101005.84;;;9.93;100.00
10008;BME280;5043;41.766;26.204;2024-02-23T07:00:52;101009.00;;;10.12;100.00
10008;BME280;5043;41.766;26.204;2024-02-23T07:03:17;101013.81;;;10.32;100.00
10008;BME280;5043;41.766;26.204;2024-02-23T07:05:43;101008.06;;;10.53;100.00
10008;BME280;5043;41.766;26.204;2024-02-23T07:08:08;101006.19;;;10.67;100.00
10008;BME280;5043;41.766;26.204;2024-02-23T07:10:34;101002.63;;;10.93;100.00
10008;BME280;5043;41.766;26.204;2024-02-23T07:13:00;100992.81;;;11.08;100.00
10008;BME280;5043;41.766;26.204;2024-02-23T07:15:25;101005.59;;;11.39;100.00
10008;BME280;5043;41.766;26.204;2024-02-23T07:17:52;100985.03;;;11.55;100.00
10008;BME280;5043;41.766;26.204;2024-02-23T07:20:17;100997.69;;;11.63;100.00
10008;BME280;5043;41.766;26.204;2024-02-23T07:22:46;100998.63;;;11.74;100.00
10008;BME280;5043;41.766;26.204;2024-02-23T07:25:18;100998.09;;;11.82;100.00
10008;BME280;5043;41.766;26.204;2024-02-23T07:27:47;101013.13;;;12.05;100.00
10008;BME280;5043;41.766;26.204;2024-02-23T07:30:16;101009.59;;;12.17;100.00
10008;BME280;5043;41.766;26.204;2024-02-23T07:32:42;100999.22;;;12.38;100.00
10008;BME280;5043;41.766;26.204;2024-02-23T07:35:09;101009.38;;;12.55;100.00
10008;BME280;5043;41.766;26.204;2024-02-23T07:37:34;100979.53;;;12.42;100.00
10008;BME280;5043;41.766;26.204;2024-02-23T07:40:00;100915.00;;;12.21;100.00
10008;BME280;5043;41.766;26.204;2024-02-23T07:42:26;100996.00;;;12.91;100.00
10008;BME280;5043;41.766;26.204;2024-02-23T07:44:52;100985.59;;;13.12;100.00
10008;BME280;5043;41.766;26.204;2024-02-23T07:47:18;100980.19;;;13.36;100.00
10008;BME280;5043;41.766;26.204;2024-02-23T07:49:43;100987.34;;;13.67;99.46
10008;BME280;5043;41.766;26.204;2024-02-23T07:52:09;100990.22;;;13.86;97.87
10008;BME280;5043;41.766;26.204;2024-02-23T07:54:35;100981.78;;;13.81;97.05
10008;BME280;5043;41.766;26.204;2024-02-23T07:57:00;100969.91;;;14.07;96.24
10008;BME280;5043;41.766;26.204;2024-02-23T07:59:26;100972.66;;;14.17;95.50
10008;BME280;5043;41.766;26.204;2024-02-23T08:01:53;100942.28;;;14.10;95.35
10008;BME280;5043;41.766;26.204;2024-02-23T08:04:19;100998.78;;;14.64;94.98
10008;BME280;5043;41.766;26.204;2024-02-23T08:06:44;100991.91;;;14.82;94.21
10008;BME280;5043;41.766;26.204;2024-02-23T08:09:10;100980.81;;;14.98;93.69
10008;BME280;5043;41.766;26.204;2024-02-23T08:11:36;100972.50;;;15.12;93.27
10008;BME280;5043;41.766;26.204;2024-02-23T08:14:02;100973.56;;;15.30;93.10
10008;BME280;5043;41.766;26.204;2024-02-23T08:16:28;100972.69;;;15.50;92.58
10008;BME280;5043;41.766;26.204;2024-02-23T08:18:54;100981.41;;;15.71;92.24
10008;BME280;5043;41.766;26.204;2024-02-23T08:21:20;100988.47;;;15.92;91.86
10008;BME280;5043;41.766;26.204;2024-02-23T08:23:46;100982.16;;;15.93;91.67
10008;BME280;5043;41.766;26.204;2024-02-23T08:26:12;100983.47;;;16.08;92.06
10008;BME280;5043;41.766;26.204;2024-02-23T08:28:38;100961.75;;;16.22;92.18
10008;BME280;5043;41.766;26.204;2024-02-23T08:31:04;100973.13;;;16.53;91.40
10008;BME280;5043;41.766;26.204;2024-02-23T08:33:30;100974.78;;;16.63;91.57
10008;BME280;5043;41.766;26.204;2024-02-23T08:35:56;100972.97;;;16.64;91.99
10008;BME280;5043;41.766;26.204;2024-02-23T08:38:22;100976.47;;;16.74;91.18
10008;BME280;5043;41.766;26.204;2024-02-23T08:40:47;100974.50;;;16.66;90.69
10008;BME280;5043;41.766;26.204;2024-02-23T08:43:13;100935.94;;;16.70;90.98
10008;BME280;5043;41.766;26.204;2024-02-23T08:45:39;100974.72;;;17.01;89.16
10008;BME280;5043;41.766;26.204;2024-02-23T08:48:05;100955.63;;;16.96;87.96
10008;BME280;5043;41.766;26.204;2024-02-23T08:50:33;100889.75;;;16.79;87.87
10008;BME280;5043;41.766;26.204;2024-02-23T08:52:59;100964.81;;;17.58;86.57
10008;BME280;5043;41.766;26.204;2024-02-23T08:55:25;100967.56;;;17.93;84.52
10008;BME280;5043;41.766;26.204;2024-02-23T08:57:51;100971.91;;;18.29;81.31
10008;BME280;5043;41.766;26.204;2024-02-23T09:00:17;100954.91;;;18.48;78.58
10008;BME280;5043;41.766;26.204;2024-02-23T09:02:42;100967.31;;;18.57;77.84
10008;BME280;5043;41.766;26.204;2024-02-23T09:05:08;100963.16;;;18.80;73.65
10008;BME280;5043;41.766;26.204;2024-02-23T09:07:35;100958.16;;;19.11;73.53
10008;BME280;5043;41.766;26.204;2024-02-23T09:10:01;100964.13;;;19.31;73.05
10008;BME280;5043;41.766;26.204;2024-02-23T09:12:31;100955.84;;;19.16;73.40
10008;BME280;5043;41.766;26.204;2024-02-23T09:14:57;100944.69;;;18.87;73.05
10008;BME280;5043;41.766;26.204;2024-02-23T09:17:23;100952.03;;;18.85;76.15
10008;BME280;5043;41.766;26.204;2024-02-23T09:19:48;100956.31;;;18.78;77.61
10008;BME280;5043;41.766;26.204;2024-02-23T09:22:14;100944.22;;;18.74;74.06
10008;BME280;5043;41.766;26.204;2024-02-23T09:24:41;100988.72;;;19.00;61.14
10008;BME280;5043;41.766;26.204;2024-02-23T09:27:07;100925.41;;;19.09;53.45
10008;BME280;5043;41.766;26.204;2024-02-23T09:29:34;100944.06;;;19.27;50.80
10008;BME280;5043;41.766;26.204;2024-02-23T09:32:00;100936.34;;;19.23;50.99
10008;BME280;5043;41.766;26.204;2024-02-23T09:34:26;100928.78;;;19.45;49.60
10008;BME280;5043;41.766;26.204;2024-02-23T09:36:51;100929.19;;;19.66;48.92
10008;BME280;5043;41.766;26.204;2024-02-23T09:39:17;100933.94;;;19.96;48.81
10008;BME280;5043;41.766;26.204;2024-02-23T09:41:43;100933.47;;;20.09;46.89
10008;BME280;5043;41.766;26.204;2024-02-23T09:44:09;100930.25;;;20.05;46.68
10008;BME280;5043;41.766;26.204;2024-02-23T09:46:38;100898.63;;;20.09;44.92
10008;BME280;5043;41.766;26.204;2024-02-23T09:49:05;100928.47;;;20.22;44.15
10008;BME280;5043;41.766;26.204;2024-02-23T09:51:33;100925.25;;;20.18;44.58
10008;BME280;5043;41.766;26.204;2024-02-23T09:54:01;100922.59;;;20.50;43.54
10008;BME280;5043;41.766;26.204;2024-02-23T09:56:28;100916.03;;;20.69;43.08
10008;BME280;5043;41.766;26.204;2024-02-23T09:58:57;100889.56;;;20.66;43.01
10008;BME280;5043;41.766;26.204;2024-02-23T10:01:27;100931.13;;;20.54;43.16
10008;BME280;5043;41.766;26.204;2024-02-23T10:03:57;100894.06;;;20.74;42.38
10008;BME280;5043;41.766;26.204;2024-02-23T10:06:27;100874.94;;;20.85;42.28
10008;BME280;5043;41.766;26.204;2024-02-23T10:08:53;100904.94;;;21.04;41.72
10008;BME280;5043;41.766;26.204;2024-02-23T10:11:23;100890.97;;;21.17;41.86
10008;BME280;5043;41.766;26.204;2024-02-23T10:13:49;100887.75;;;21.21;41.21
10008;BME280;5043;41.766;26.204;2024-02-23T10:16:19;100901.41;;;21.43;40.96
10008;BME280;5043;41.766;26.204;2024-02-23T10:18:48;100893.50;;;21.49;40.42
10008;BME280;5043;41.766;26.204;2024-02-23T10:21:15;100885.06;;;21.52;40.44
10008;BME280;5043;41.766;26.204;2024-02-23T10:23:41;100870.00;;;21.43;39.98
10008;BME280;5043;41.766;26.204;2024-02-23T10:26:07;100869.75;;;21.92;39.38
10008;BME280;5043;41.766;26.204;2024-02-23T10:28:37;100872.72;;;22.19;38.66
10008;BME280;5043;41.766;26.204;2024-02-23T10:31:06;100886.31;;;21.72;38.88
10008;BME280;5043;41.766;26.204;2024-02-23T10:33:32;100849.34;;;21.52;39.13
10008;BME280;5043;41.766;26.204;2024-02-23T10:35:58;100866.53;;;21.96;38.95
10008;BME280;5043;41.766;26.204;2024-02-23T10:38:26;100872.22;;;22.38;38.01
10008;BME280;5043;41.766;26.204;2024-02-23T10:40:57;100876.41;;;22.18;37.90
10008;BME280;5043;41.766;26.204;2024-02-23T10:43:30;100853.13;;;21.88;38.30
10008;BME280;5043;41.766;26.204;2024-02-23T10:46:00;100873.06;;;21.71;38.31
10008;BME280;5043;41.766;26.204;2024-02-23T10:48:33;100856.75;;;21.50;38.92
10008;BME280;5043;41.766;26.204;2024-02-23T10:51:00;100858.94;;;21.69;38.91
10008;BME280;5043;41.766;26.204;2024-02-23T10:53:26;100854.47;;;21.92;38.35
10008;BME280;5043;41.766;26.204;2024-02-23T10:55:56;100850.81;;;22.08;37.84
10008;BME280;5043;41.766;26.204;2024-02-23T10:58:25;100834.19;;;22.04;37.68
10008;BME280;5043;41.766;26.204;2024-02-23T11:00:51;100851.31;;;22.26;36.63
10008;BME280;5043;41.766;26.204;2024-02-23T11:03:18;100850.41;;;22.33;36.62
10008;BME280;5043;41.766;26.204;2024-02-23T11:05:47;100845.88;;;22.48;36.14
10008;BME280;5043;41.766;26.204;2024-02-23T11:08:17;100837.50;;;22.66;35.94
10008;BME280;5043;41.766;26.204;2024-02-23T11:10:48;100828.97;;;22.25;36.68
10008;BME280;5043;41.766;26.204;2024-02-23T11:13:15;100824.28;;;21.82;37.59
10008;BME280;5043;41.766;26.204;2024-02-23T11:15:42;100816.88;;;21.61;38.00
10008;BME280;5043;41.766;26.204;2024-02-23T11:18:34;100822.94;;;21.86;37.75
10008;BME280;5043;41.766;26.204;2024-02-23T11:21:01;100819.78;;;22.34;36.91
10008;BME280;5043;41.766;26.204;2024-02-23T11:23:43;100819.25;;;22.53;37.32
10008;BME280;5043;41.766;26.204;2024-02-23T11:26:12;100812.38;;;22.22;37.37
10008;BME280;5043;41.766;26.204;2024-02-23T11:28:56;100787.88;;;21.57;37.91
10008;BME280;5043;41.766;26.204;2024-02-23T11:31:25;100810.72;;;22.35;37.61
10008;BME280;5043;41.766;26.204;2024-02-23T11:33:55;100805.06;;;22.30;36.80
10008;BME280;5043;41.766;26.204;2024-02-23T11:36:29;100803.16;;;22.83;36.13
10008;BME280;5043;41.766;26.204;2024-02-23T11:38:59;100802.53;;;22.81;35.94
10008;BME280;5043;41.766;26.204;2024-02-23T11:41:27;100791.53;;;23.47;34.73
10008;BME280;5043;41.766;26.204;2024-02-23T11:43:54;100803.25;;;24.03;33.00
10008;BME280;5043;41.766;26.204;2024-02-23T11:46:21;100793.38;;;24.10;32.59
10008;BME280;5043;41.766;26.204;2024-02-23T11:48:48;100787.59;;;23.92;32.92
10008;BME280;5043;41.766;26.204;2024-02-23T11:51:23;100780.25;;;23.58;33.09
10008;BME280;5043;41.766;26.204;2024-02-23T11:53:52;100781.16;;;23.65;32.86
10008;BME280;5043;41.766;26.204;2024-02-23T11:56:19;100785.38;;;23.74;32.31
10008;BME280;5043;41.766;26.204;2024-02-23T11:58:46;100781.09;;;24.29;31.46
10008;BME280;5043;41.766;26.204;2024-02-23T12:01:12;100789.13;;;24.84;30.66
10008;BME280;5043;41.766;26.204;2024-02-23T12:03:38;100759.41;;;25.51;30.17
10008;BME280;5043;41.766;26.204;2024-02-23T12:06:04;100787.34;;;26.30;29.51
10008;BME280;5043;41.766;26.204;2024-02-23T12:08:32;100774.22;;;27.04;28.46
10008;BME280;5043;41.766;26.204;2024-02-23T12:11:05;100788.28;;;26.69;28.26
10008;BME280;5043;41.766;26.204;2024-02-23T12:13:31;100793.31;;;27.22;27.02
10008;BME280;5043;41.766;26.204;2024-02-23T12:15:57;100784.66;;;28.87;25.50
10008;BME280;5043;41.766;26.204;2024-02-23T12:18:23;100788.22;;;29.23;24.92
10008;BME280;5043;41.766;26.204;2024-02-23T12:20:52;100776.22;;;29.84;24.58
10008;BME280;5043;41.766;26.204;2024-02-23T12:23:18;100757.78;;;30.44;23.97
10008;BME280;5043;41.766;26.204;2024-02-23T12:26:04;100777.09;;;29.96;24.31
10008;BME280;5043;41.766;26.204;2024-02-23T12:28:30;100778.47;;;30.91;23.48
10008;BME280;5043;41.766;26.204;2024-02-23T12:30:59;100762.69;;;30.82;22.91
10008;BME280;5043;41.766;26.204;2024-02-23T12:33:33;100788.38;;;31.49;22.47
10008;BME280;5043;41.766;26.204;2024-02-23T12:36:06;100795.06;;;32.41;21.37
10008;BME280;5043;41.766;26.204;2024-02-23T12:38:33;100776.38;;;32.71;21.64
10008;BME280;5043;41.766;26.204;2024-02-23T12:41:00;100783.44;;;33.05;21.04
10008;BME280;5043;41.766;26.204;2024-02-23T12:43:26;100773.47;;;32.56;21.25
10008;BME280;5043;41.766;26.204;2024-02-23T12:45:53;100760.06;;;34.51;19.54
10008;BME280;5043;41.766;26.204;2024-02-23T12:48:22;100770.44;;;34.39;19.23